Time;durP1;ratioP1;P1;durP2;ratioP2;P2;SDS_P1;SDS_P2;PMS_P1;PMS_P2;Temp;Humidity;BMP_temperature;BMP_pressure;BME280_temperature;BME280_humidity;BME280_pressure;Samples;Min_cycle;Max_cycle;Signal;HPM_P1;HPM_P2
2023/05/22 00:01:07;;;;;;;21.47;19.37;;;;;;;;;;5076050;28;20951;-67
2023/05/22 00:03:35;;;;;;;22.20;17.90;;;;;;;;;;5076649;28;20440;-66
2023/05/22 00:06:02;;;;;;;18.37;16.40;;;;;;;;;;5076553;28;20448;-66
2023/05/22 00:08:30;;;;;;;20.77;15.67;;;;;;;;;;5076082;28;20975;-66
2023/05/22 00:10:57;;;;;;;18.00;16.10;;;;;;;;;;5076070;28;20885;-66
2023/05/22 00:13:25;;;;;;;17.10;15.30;;;;;;;;;;5075604;28;20451;-66
2023/05/22 00:15:53;;;;;;;17.40;15.60;;;;;;;;;;5075704;28;20580;-66
2023/05/22 00:18:21;;;;;;;17.87;15.50;;;;;;;;;;5074884;28;20436;-66
2023/05/22 00:20:49;;;;;;;17.10;14.37;;;;;;;;;;5075565;28;20438;-66
2023/05/22 00:23:16;;;;;;;17.13;15.37;;;;;;;;;;5075688;28;20444;-67
2023/05/22 00:25:43;;;;;;;17.37;15.50;;;;;;;;;;5076029;28;20458;-66
2023/05/22 00:28:12;;;;;;;16.90;15.30;;;;;;;;;;5075647;28;20450;-66
2023/05/22 00:30:40;;;;;;;17.70;15.87;;;;;;;;;;5075294;28;20443;-66
2023/05/22 00:33:07;;;;;;;15.67;14.17;;;;;;;;;;5075762;28;20802;-66
2023/05/22 00:35:34;;;;;;;16.30;14.70;;;;;;;;;;5075530;28;20819;-66
2023/05/22 00:38:04;;;;;;;16.57;14.87;;;;;;;;;;5075495;28;20459;-66
2023/05/22 00:40:31;;;;;;;16.73;15.00;;;;;;;;;;5075493;28;20493;-66
2023/05/22 00:42:58;;;;;;;16.97;15.17;;;;;;;;;;5075370;28;20454;-66
2023/05/22 00:45:25;;;;;;;17.23;14.70;;;;;;;;;;5075609;28;20466;-66
2023/05/22 00:47:54;;;;;;;17.53;15.77;;;;;;;;;;5075480;28;20462;-66
2023/05/22 00:50:21;;;;;;;15.80;14.20;;;;;;;;;;5075013;28;20443;-66
2023/05/22 00:52:48;;;;;;;19.43;15.43;;;;;;;;;;5075210;28;20793;-66
2023/05/22 00:55:16;;;;;;;15.63;14.07;;;;;;;;;;5075171;28;20442;-66
2023/05/22 00:57:44;;;;;;;17.63;15.80;;;;;;;;;;5075018;28;20484;-66
2023/05/22 01:00:13;;;;;;;17.00;15.30;;;;;;;;;;5074765;28;20444;-66
2023/05/22 01:02:41;;;;;;;17.20;14.43;;;;;;;;;;5074559;28;20916;-65
2023/05/22 01:05:11;;;;;;;16.30;14.70;;;;;;;;;;5075192;28;20446;-66
2023/05/22 01:07:39;;;;;;;16.07;14.40;;;;;;;;;;5074996;28;20443;-66
2023/05/22 01:10:07;;;;;;;16.13;14.53;;;;;;;;;;5075161;28;20445;-66
2023/05/22 01:12:38;;;;;;;16.07;14.47;;;;;;;;;;5074473;28;20929;-66
2023/05/22 01:15:08;;;;;;;14.77;13.37;;;;;;;;;;5074995;28;20442;-66
2023/05/22 01:17:40;;;;;;;15.30;13.60;;;;;;;;;;5074506;28;20495;-66
2023/05/22 01:20:13;;;;;;;15.33;13.83;;;;;;;;;;5074629;28;20427;-65
2023/05/22 01:22:59;;;;;;;14.50;13.10;;;;;;;;;;5074570;28;20917;-66
2023/05/22 01:25:36;;;;;;;14.67;13.10;;;;;;;;;;5075052;28;20832;-66
2023/05/22 01:28:09;;;;;;;16.33;14.30;;;;;;;;;;5074562;28;20434;-66
2023/05/22 01:30:49;;;;;;;15.23;13.70;;;;;;;;;;5074203;28;20876;-65
2023/05/22 01:33:17;;;;;;;16.03;13.93;;;;;;;;;;5075011;28;20415;-66
2023/05/22 01:35:46;;;;;;;16.37;14.67;;;;;;;;;;5074095;28;20502;-66
2023/05/22 01:38:13;;;;;;;17.07;15.37;;;;;;;;;;5074469;28;20502;-66
2023/05/22 01:40:41;;;;;;;16.03;14.43;;;;;;;;;;5074269;28;20945;-66
2023/05/22 01:43:08;;;;;;;16.63;14.93;;;;;;;;;;5073792;28;20523;-66
2023/05/22 01:45:36;;;;;;;18.13;13.83;;;;;;;;;;5074257;28;20448;-66
2023/05/22 01:48:05;;;;;;;16.83;15.10;;;;;;;;;;5073750;28;20459;-66
2023/05/22 01:50:32;;;;;;;15.43;14.03;;;;;;;;;;5073979;28;20440;-66
2023/05/22 01:53:06;;;;;;;17.27;15.53;;;;;;;;;;5073681;28;20448;-66
2023/05/22 01:55:34;;;;;;;19.53;17.53;;;;;;;;;;5074197;28;20435;-66
2023/05/22 01:58:07;;;;;;;16.50;14.53;;;;;;;;;;5074007;28;20556;-66
2023/05/22 02:00:36;;;;;;;17.77;15.40;;;;;;;;;;5074009;28;20523;-66
2023/05/22 02:03:07;;;;;;;16.17;14.47;;;;;;;;;;5073855;28;20858;-66
2023/05/22 02:05:35;;;;;;;16.20;14.60;;;;;;;;;;5074196;28;20425;-66
2023/05/22 02:08:02;;;;;;;16.27;14.67;;;;;;;;;;5073857;28;20495;-66
2023/05/22 02:10:30;;;;;;;15.80;14.30;;;;;;;;;;5073910;28;20446;-66
2023/05/22 02:12:57;;;;;;;22.37;15.83;;;;;;;;;;5073868;28;20443;-66
2023/05/22 02:15:25;;;;;;;16.00;14.50;;;;;;;;;;5073205;28;20935;-66
2023/05/22 02:17:52;;;;;;;17.23;14.80;;;;;;;;;;5073241;28;20502;-66
2023/05/22 02:20:21;;;;;;;18.23;16.00;;;;;;;;;;5073443;28;21017;-66
2023/05/22 02:22:48;;;;;;;16.43;14.80;;;;;;;;;;5073684;28;20443;-66
2023/05/22 02:25:16;;;;;;;18.07;16.23;;;;;;;;;;5073570;28;20438;-66
2023/05/22 02:27:43;;;;;;;16.20;14.30;;;;;;;;;;5073684;28;20454;-66
2023/05/22 02:30:11;;;;;;;15.93;14.20;;;;;;;;;;5073203;28;21012;-67
2023/05/22 02:32:39;;;;;;;17.17;15.47;;;;;;;;;;5073393;28;20441;-66
2023/05/22 02:35:07;;;;;;;19.47;16.87;;;;;;;;;;5073162;28;20445;-66
2023/05/22 02:37:35;;;;;;;17.77;16.07;;;;;;;;;;5073135;28;21010;-66
2023/05/22 02:40:04;;;;;;;17.53;15.80;;;;;;;;;;5073400;28;20438;-67
2023/05/22 02:42:32;;;;;;;17.10;15.43;;;;;;;;;;5072923;28;20442;-66
2023/05/22 02:44:59;;;;;;;21.50;18.60;;;;;;;;;;5073070;28;20444;-66
2023/05/22 02:47:26;;;;;;;17.20;15.43;;;;;;;;;;5073136;28;20932;-66
2023/05/22 02:49:53;;;;;;;18.43;16.50;;;;;;;;;;5073328;28;20793;-66
2023/05/22 02:52:21;;;;;;;16.20;14.70;;;;;;;;;;5073365;28;20443;-66
2023/05/22 02:54:49;;;;;;;16.70;15.10;;;;;;;;;;5073278;28;20784;-66
2023/05/22 02:57:17;;;;;;;18.47;16.03;;;;;;;;;;5073798;28;20487;-66
2023/05/22 02:59:44;;;;;;;17.67;15.70;;;;;;;;;;5073225;28;20452;-66
2023/05/22 03:02:12;;;;;;;16.57;14.80;;;;;;;;;;5072986;28;20971;-66
2023/05/22 03:04:40;;;;;;;17.00;15.20;;;;;;;;;;5072888;28;20502;-66
2023/05/22 03:07:07;;;;;;;17.13;15.50;;;;;;;;;;5073363;28;20926;-67
2023/05/22 03:09:35;;;;;;;17.10;15.47;;;;;;;;;;5073137;28;20476;-66
2023/05/22 03:12:04;;;;;;;15.80;14.10;;;;;;;;;;5073338;28;20441;-66
2023/05/22 03:14:31;;;;;;;17.43;14.80;;;;;;;;;;5073199;28;20481;-66
2023/05/22 03:16:59;;;;;;;16.50;14.90;;;;;;;;;;5073232;28;20489;-66
2023/05/22 03:19:26;;;;;;;18.87;14.07;;;;;;;;;;5073074;28;20435;-66
2023/05/22 03:21:53;;;;;;;17.17;15.30;;;;;;;;;;5073416;28;20446;-66
2023/05/22 03:24:20;;;;;;;16.93;15.50;;;;;;;;;;5073093;28;20451;-66
2023/05/22 03:26:48;;;;;;;17.63;14.97;;;;;;;;;;5073058;28;20450;-66
2023/05/22 03:29:16;;;;;;;16.60;15.00;;;;;;;;;;5072626;28;20970;-66
2023/05/22 03:31:43;;;;;;;17.07;15.37;;;;;;;;;;5072996;28;20442;-66
2023/05/22 03:34:10;;;;;;;16.17;14.63;;;;;;;;;;5073203;28;20439;-66
2023/05/22 03:36:37;;;;;;;17.87;16.17;;;;;;;;;;5073232;28;20448;-67
2023/05/22 03:39:05;;;;;;;16.50;14.23;;;;;;;;;;5072872;28;20439;-66
2023/05/22 03:41:32;;;;;;;15.57;14.07;;;;;;;;;;5072978;28;20920;-66
2023/05/22 03:43:59;;;;;;;17.93;16.03;;;;;;;;;;5073015;28;20472;-66
2023/05/22 03:46:28;;;;;;;20.40;17.57;;;;;;;;;;5072079;28;20458;-67
2023/05/22 03:48:55;;;;;;;16.03;14.40;;;;;;;;;;5072289;28;20949;-67
2023/05/22 03:51:22;;;;;;;16.47;14.70;;;;;;;;;;5072054;28;20452;-66
2023/05/22 03:53:49;;;;;;;20.20;16.50;;;;;;;;;;5073687;28;20796;-67
2023/05/22 03:56:17;;;;;;;17.93;16.10;;;;;;;;;;5076298;28;20789;-66
2023/05/22 03:58:44;;;;;;;16.80;15.10;;;;;;;;;;5075770;28;20478;-66
2023/05/22 04:01:12;;;;;;;18.40;16.60;;;;;;;;;;5075683;28;20450;-66
2023/05/22 04:03:41;;;;;;;17.70;15.87;;;;;;;;;;5076567;28;20450;-66
2023/05/22 04:06:09;;;;;;;17.00;15.20;;;;;;;;;;5076053;28;20453;-66
2023/05/22 04:08:36;;;;;;;16.83;15.03;;;;;;;;;;5076019;28;20444;-67
2023/05/22 04:11:04;;;;;;;18.20;16.27;;;;;;;;;;5075972;28;20446;-66
2023/05/22 04:13:32;;;;;;;21.80;15.77;;;;;;;;;;5075987;28;20559;-66
2023/05/22 04:16:00;;;;;;;18.73;16.73;;;;;;;;;;5075536;28;20483;-66
2023/05/22 04:18:28;;;;;;;17.17;15.37;;;;;;;;;;5075678;28;20830;-67
2023/05/22 04:20:56;;;;;;;18.87;15.97;;;;;;;;;;5075306;28;20974;-67
2023/05/22 04:23:23;;;;;;;17.37;15.57;;;;;;;;;;5076290;28;20447;-66
2023/05/22 04:25:51;;;;;;;17.80;15.90;;;;;;;;;;5075361;28;20441;-66
2023/05/22 04:28:21;;;;;;;18.70;16.50;;;;;;;;;;5075296;28;20456;-66
2023/05/22 04:30:48;;;;;;;22.23;18.57;;;;;;;;;;5075559;28;20869;-66
2023/05/22 04:33:16;;;;;;;18.83;16.83;;;;;;;;;;5075438;28;20476;-67
2023/05/22 04:35:44;;;;;;;17.20;15.17;;;;;;;;;;5075052;28;20946;-66
2023/05/22 04:38:12;;;;;;;17.00;15.10;;;;;;;;;;5075418;28;20505;-67
2023/05/22 04:40:40;;;;;;;19.33;16.53;;;;;;;;;;5075118;28;20867;-67
2023/05/22 04:43:07;;;;;;;18.20;16.17;;;;;;;;;;5075462;28;20466;-67
2023/05/22 04:45:34;;;;;;;24.17;17.90;;;;;;;;;;5075180;28;20586;-71
2023/05/22 04:48:01;;;;;;;18.80;15.93;;;;;;;;;;5075165;28;20472;-73
2023/05/22 04:50:31;;;;;;;21.60;17.40;;;;;;;;;;5074706;28;20497;-67
2023/05/22 04:52:59;;;;;;;18.27;16.47;;;;;;;;;;5074963;28;20538;-67
2023/05/22 04:55:28;;;;;;;20.47;16.53;;;;;;;;;;5074695;28;20440;-67
2023/05/22 04:57:56;;;;;;;15.47;13.97;;;;;;;;;;5075284;28;20517;-67
2023/05/22 05:00:25;;;;;;;18.90;17.00;;;;;;;;;;5074932;28;20444;-67
2023/05/22 05:02:53;;;;;;;20.13;16.23;;;;;;;;;;5074960;28;20845;-67
2023/05/22 05:05:20;;;;;;;17.07;15.50;;;;;;;;;;5074618;28;21003;-67
2023/05/22 05:07:49;;;;;;;16.97;15.17;;;;;;;;;;5074523;28;20445;-66
2023/05/22 05:10:16;;;;;;;17.00;15.37;;;;;;;;;;5074677;28;20439;-67
2023/05/22 05:12:45;;;;;;;16.87;14.97;;;;;;;;;;5074350;28;20949;-66
2023/05/22 05:15:12;;;;;;;16.20;14.60;;;;;;;;;;5074361;28;20462;-66
2023/05/22 05:17:39;;;;;;;18.33;15.77;;;;;;;;;;5074754;28;20505;-66
2023/05/22 05:20:07;;;;;;;19.27;14.90;;;;;;;;;;5074102;28;20444;-66
2023/05/22 05:22:36;;;;;;;20.13;15.90;;;;;;;;;;5074408;28;20472;-66
2023/05/22 05:25:04;;;;;;;18.57;16.47;;;;;;;;;;5074524;28;20530;-67
2023/05/22 05:27:31;;;;;;;18.70;16.17;;;;;;;;;;5074557;28;20460;-67
2023/05/22 05:30:00;;;;;;;19.10;16.70;;;;;;;;;;5074486;28;20446;-67
2023/05/22 05:32:27;;;;;;;16.63;14.90;;;;;;;;;;5074265;28;20440;-67
2023/05/22 05:34:55;;;;;;;17.10;15.40;;;;;;;;;;5074415;28;20439;-67
2023/05/22 05:37:22;;;;;;;17.17;15.37;;;;;;;;;;5074200;28;20448;-67
2023/05/22 05:39:49;;;;;;;27.23;16.00;;;;;;;;;;5074019;28;20951;-67
2023/05/22 05:42:17;;;;;;;16.80;15.30;;;;;;;;;;5074182;28;20445;-67
2023/05/22 05:44:44;;;;;;;18.23;16.43;;;;;;;;;;5074254;28;20442;-67
2023/05/22 05:47:13;;;;;;;19.20;16.20;;;;;;;;;;5073829;28;20444;-67
2023/05/22 05:49:40;;;;;;;17.03;15.23;;;;;;;;;;5073873;28;20436;-67
2023/05/22 05:52:07;;;;;;;34.73;26.57;;;;;;;;;;5073948;28;20448;-67
2023/05/22 05:54:35;;;;;;;31.30;27.97;;;;;;;;;;5074127;28;20530;-67
2023/05/22 05:57:02;;;;;;;18.73;16.87;;;;;;;;;;5074099;28;20446;-67
2023/05/22 05:59:30;;;;;;;18.70;16.70;;;;;;;;;;5073793;28;20573;-67
2023/05/22 06:01:58;;;;;;;19.57;15.53;;;;;;;;;;5073712;28;20457;-67
2023/05/22 06:04:27;;;;;;;19.40;16.80;;;;;;;;;;5073972;28;20448;-67
2023/05/22 06:06:54;;;;;;;20.90;18.00;;;;;;;;;;5073560;28;20443;-67
2023/05/22 06:09:21;;;;;;;19.63;17.30;;;;;;;;;;5073660;28;20447;-67
2023/05/22 06:11:48;;;;;;;17.90;16.10;;;;;;;;;;5073647;28;20458;-67
2023/05/22 06:14:15;;;;;;;17.40;15.70;;;;;;;;;;5073330;28;20940;-67
2023/05/22 06:16:42;;;;;;;19.47;17.57;;;;;;;;;;5072394;28;20814;-67
2023/05/22 06:19:10;;;;;;;20.73;18.67;;;;;;;;;;5073777;28;20478;-67
2023/05/22 06:21:38;;;;;;;21.07;18.87;;;;;;;;;;5073553;28;20526;-67
2023/05/22 06:24:06;;;;;;;19.50;17.50;;;;;;;;;;5073628;28;20448;-66
2023/05/22 06:26:33;;;;;;;19.37;17.47;;;;;;;;;;5073438;28;20801;-67
2023/05/22 06:29:00;;;;;;;19.80;17.70;;;;;;;;;;5073274;28;20448;-67
2023/05/22 06:31:28;;;;;;;21.33;19.20;;;;;;;;;;5073473;28;20436;-67
2023/05/22 06:33:55;;;;;;;20.93;18.73;;;;;;;;;;5073226;28;20447;-67
2023/05/22 06:36:22;;;;;;;20.10;18.00;;;;;;;;;;5073973;28;20549;-68
2023/05/22 06:38:53;;;;;;;26.90;19.50;;;;;;;;;;5073762;28;20483;-67
2023/05/22 06:41:21;;;;;;;20.13;18.13;;;;;;;;;;5073245;28;20910;-67
2023/05/22 06:43:48;;;;;;;21.07;19.03;;;;;;;;;;5073328;28;20458;-67
2023/05/22 06:46:16;;;;;;;22.60;18.30;;;;;;;;;;5072991;28;20448;-67
2023/05/22 06:48:43;;;;;;;22.30;19.90;;;;;;;;;;5073363;28;20921;-66
2023/05/22 06:51:11;;;;;;;21.40;19.20;;;;;;;;;;5073501;28;20797;-66
2023/05/22 06:53:38;;;;;;;23.13;20.93;;;;;;;;;;5073319;28;20527;-67
2023/05/22 06:56:07;;;;;;;21.20;18.83;;;;;;;;;;5073275;28;20440;-67
2023/05/22 06:58:34;;;;;;;20.30;18.30;;;;;;;;;;5073207;28;20508;-66
2023/05/22 07:01:02;;;;;;;26.60;21.27;;;;;;;;;;5073240;28;20899;-65
2023/05/22 07:03:29;;;;;;;20.20;18.20;;;;;;;;;;5073175;28;20799;-65
2023/05/22 07:05:58;;;;;;;21.43;18.60;;;;;;;;;;5073293;28;20548;-65
2023/05/22 07:08:25;;;;;;;20.70;18.13;;;;;;;;;;5073071;28;20441;-65
2023/05/22 07:10:52;;;;;;;19.43;17.63;;;;;;;;;;5073170;28;20451;-65
2023/05/22 07:13:21;;;;;;;20.60;18.47;;;;;;;;;;5073048;28;20456;-65
2023/05/22 07:15:49;;;;;;;22.47;20.37;;;;;;;;;;5072899;28;20468;-65
2023/05/22 07:18:16;;;;;;;23.53;20.70;;;;;;;;;;5073053;28;20472;-65
2023/05/22 07:20:44;;;;;;;21.50;19.37;;;;;;;;;;5073092;28;20443;-65
2023/05/22 07:23:11;;;;;;;20.70;18.70;;;;;;;;;;5072644;28;20935;-66
2023/05/22 07:25:38;;;;;;;22.90;20.40;;;;;;;;;;5073260;28;20534;-65
2023/05/22 07:28:07;;;;;;;23.30;20.00;;;;;;;;;;5074690;28;20448;-65
2023/05/22 07:30:37;;;;;;;24.37;21.77;;;;;;;;;;5076490;28;20456;-65
2023/05/22 07:33:06;;;;;;;21.93;19.57;;;;;;;;;;5077032;28;20447;-64
2023/05/22 07:35:33;;;;;;;23.27;20.87;;;;;;;;;;5076823;28;20440;-64
2023/05/22 07:38:01;;;;;;;22.27;19.87;;;;;;;;;;5076507;28;20440;-64
2023/05/22 07:40:28;;;;;;;21.60;19.60;;;;;;;;;;5076338;28;20448;-66
2023/05/22 07:42:55;;;;;;;21.73;19.53;;;;;;;;;;5076908;28;20443;-67
2023/05/22 07:45:22;;;;;;;23.40;20.60;;;;;;;;;;5076204;28;20775;-64
2023/05/22 07:47:51;;;;;;;25.63;20.60;;;;;;;;;;5076385;28;20444;-65
2023/05/22 07:50:18;;;;;;;22.63;20.23;;;;;;;;;;5076433;28;20441;-64
2023/05/22 07:52:45;;;;;;;23.67;20.37;;;;;;;;;;5076244;28;20451;-65
2023/05/22 07:55:12;;;;;;;22.37;20.17;;;;;;;;;;5076117;28;20438;-65
2023/05/22 07:57:40;;;;;;;22.40;20.00;;;;;;;;;;5076110;28;20438;-65
2023/05/22 08:00:12;;;;;;;22.33;20.30;;;;;;;;;;5076157;28;20483;-65
2023/05/22 08:02:39;;;;;;;31.67;22.13;;;;;;;;;;5075783;28;20420;-67
2023/05/22 08:05:09;;;;;;;28.10;24.90;;;;;;;;;;5076146;28;20488;-64
2023/05/22 08:07:36;;;;;;;25.43;21.07;;;;;;;;;;5076470;28;20534;-66
2023/05/22 08:10:04;;;;;;;22.03;18.53;;;;;;;;;;5076318;28;20449;-65
2023/05/22 08:12:31;;;;;;;21.67;19.73;;;;;;;;;;5076251;28;20523;-65
2023/05/22 08:14:58;;;;;;;25.20;20.37;;;;;;;;;;5075874;28;20441;-65
2023/05/22 08:17:26;;;;;;;21.83;19.63;;;;;;;;;;5076396;28;20551;-64
2023/05/22 08:19:53;;;;;;;20.77;18.77;;;;;;;;;;5075667;28;20475;-65
2023/05/22 08:22:21;;;;;;;21.43;19.40;;;;;;;;;;5075828;28;20442;-65
2023/05/22 08:24:49;;;;;;;22.40;20.17;;;;;;;;;;5075728;28;20437;-64
2023/05/22 08:27:16;;;;;;;21.90;19.60;;;;;;;;;;5076117;28;20444;-64
2023/05/22 08:29:43;;;;;;;21.63;19.33;;;;;;;;;;5075355;28;20535;-65
2023/05/22 08:32:10;;;;;;;23.97;18.33;;;;;;;;;;5075003;28;20520;-65
2023/05/22 08:34:38;;;;;;;22.83;20.67;;;;;;;;;;5075072;28;20570;-64
2023/05/22 08:37:08;;;;;;;20.90;18.83;;;;;;;;;;5075302;28;20535;-64
2023/05/22 08:39:36;;;;;;;23.10;20.70;;;;;;;;;;5074270;28;20481;-64
2023/05/22 08:42:03;;;;;;;23.70;21.10;;;;;;;;;;5075466;28;20445;-65
2023/05/22 08:44:31;;;;;;;25.30;20.83;;;;;;;;;;5075358;28;20448;-65
2023/05/22 08:46:59;;;;;;;22.27;19.87;;;;;;;;;;5075922;28;20812;-64
2023/05/22 08:49:26;;;;;;;20.60;18.50;;;;;;;;;;5075374;28;20454;-64
2023/05/22 08:51:55;;;;;;;22.40;20.03;;;;;;;;;;5075364;28;20533;-65
2023/05/22 08:54:22;;;;;;;23.10;19.50;;;;;;;;;;5074944;28;20477;-64
2023/05/22 08:56:52;;;;;;;22.43;20.07;;;;;;;;;;5074941;28;20502;-64
2023/05/22 08:59:20;;;;;;;23.60;21.20;;;;;;;;;;5074699;28;20478;-64
2023/05/22 09:01:47;;;;;;;21.90;19.20;;;;;;;;;;5075118;28;20456;-64
2023/05/22 09:04:14;;;;;;;30.20;20.23;;;;;;;;;;5074992;28;20857;-64
2023/05/22 09:06:41;;;;;;;20.00;18.07;;;;;;;;;;5074969;28;20538;-64
2023/05/22 09:09:09;;;;;;;24.10;20.17;;;;;;;;;;5074781;28;20456;-65
2023/05/22 09:11:36;;;;;;;25.07;21.53;;;;;;;;;;5075093;28;20511;-64
2023/05/22 09:14:11;;;;;;;21.73;19.63;;;;;;;;;;5074930;28;20459;-64
2023/05/22 09:16:45;;;;;;;22.67;20.30;;;;;;;;;;5074982;28;20580;-64
2023/05/22 09:19:13;;;;;;;21.70;19.53;;;;;;;;;;5074544;28;20486;-65
2023/05/22 09:21:40;;;;;;;23.80;21.53;;;;;;;;;;5074561;28;20830;-65
2023/05/22 09:24:09;;;;;;;24.33;21.20;;;;;;;;;;5074905;28;20556;-64
2023/05/22 09:26:36;;;;;;;22.60;19.83;;;;;;;;;;5074286;28;20439;-64
2023/05/22 09:29:03;;;;;;;24.03;21.17;;;;;;;;;;5074658;28;20450;-64
2023/05/22 09:31:32;;;;;;;24.90;22.40;;;;;;;;;;5074207;28;20453;-64
2023/05/22 09:33:59;;;;;;;22.53;20.17;;;;;;;;;;5074271;28;20443;-64
2023/05/22 09:36:32;;;;;;;21.20;19.00;;;;;;;;;;5074237;28;20434;-64
2023/05/22 09:39:00;;;;;;;24.43;20.30;;;;;;;;;;5073857;28;20467;-64
2023/05/22 09:41:29;;;;;;;25.40;20.57;;;;;;;;;;5074273;28;20442;-64
2023/05/22 09:43:56;;;;;;;22.33;20.13;;;;;;;;;;5074524;28;20440;-65
2023/05/22 09:46:23;;;;;;;22.87;20.73;;;;;;;;;;5073946;28;20448;-65
2023/05/22 09:48:55;;;;;;;23.40;20.93;;;;;;;;;;5074519;28;20807;-65
2023/05/22 09:51:23;;;;;;;23.30;21.00;;;;;;;;;;5073801;28;20441;-64
2023/05/22 09:53:51;;;;;;;23.10;20.90;;;;;;;;;;5074033;28;20441;-64
2023/05/22 09:56:22;;;;;;;24.73;22.23;;;;;;;;;;5073894;28;20447;-64
2023/05/22 09:58:51;;;;;;;22.23;20.03;;;;;;;;;;5073813;28;20927;-64
2023/05/22 10:01:19;;;;;;;25.30;22.90;;;;;;;;;;5073868;28;20437;-64
2023/05/22 10:03:48;;;;;;;22.97;20.67;;;;;;;;;;5073889;28;20454;-64
2023/05/22 10:06:18;;;;;;;26.40;23.60;;;;;;;;;;5073766;28;20813;-66
2023/05/22 10:08:46;;;;;;;24.80;22.30;;;;;;;;;;5074401;28;20446;-64
2023/05/22 10:11:14;;;;;;;26.07;23.43;;;;;;;;;;5073337;28;20447;-64
2023/05/22 10:13:41;;;;;;;26.00;23.30;;;;;;;;;;5073637;28;20441;-64
2023/05/22 10:16:10;;;;;;;24.80;22.30;;;;;;;;;;5073307;28;20478;-65
2023/05/22 10:18:39;;;;;;;25.33;22.67;;;;;;;;;;5073377;28;20958;-64
2023/05/22 10:21:07;;;;;;;25.07;22.63;;;;;;;;;;5073051;28;20531;-64
2023/05/22 10:23:36;;;;;;;24.80;22.40;;;;;;;;;;5073628;28;20443;-64
2023/05/22 10:26:03;;;;;;;23.63;21.17;;;;;;;;;;5073539;28;20520;-65
2023/05/22 10:28:33;;;;;;;24.43;22.03;;;;;;;;;;5073248;28;20942;-64
2023/05/22 10:31:03;;;;;;;24.73;22.47;;;;;;;;;;5073126;28;20455;-65
2023/05/22 10:33:34;;;;;;;23.70;21.30;;;;;;;;;;5073846;28;20739;-66
2023/05/22 10:36:03;;;;;;;25.23;22.90;;;;;;;;;;5073106;28;20432;-65
2023/05/22 10:38:47;;;;;;;24.17;21.50;;;;;;;;;;5073350;28;20447;-65
2023/05/22 10:41:15;;;;;;;26.30;23.80;;;;;;;;;;5073438;28;20473;-65
2023/05/22 10:43:42;;;;;;;27.80;25.17;;;;;;;;;;5073432;28;20479;-65
2023/05/22 10:46:10;;;;;;;24.33;21.93;;;;;;;;;;5073618;28;20453;-65
2023/05/22 10:48:40;;;;;;;28.97;26.10;;;;;;;;;;5073338;28;20467;-65
2023/05/22 10:51:08;;;;;;;25.07;22.37;;;;;;;;;;5073558;28;20548;-65
2023/05/22 10:53:36;;;;;;;37.40;28.80;;;;;;;;;;5073418;28;20807;-65
2023/05/22 10:56:11;;;;;;;26.90;24.20;;;;;;;;;;5073256;28;20447;-65
2023/05/22 10:58:38;;;;;;;26.80;23.97;;;;;;;;;;5073666;28;20432;-65
2023/05/22 11:01:13;;;;;;;25.77;23.23;;;;;;;;;;5073076;28;20569;-65
2023/05/22 11:03:56;;;;;;;25.17;22.60;;;;;;;;;;5076490;28;20463;-65
2023/05/22 11:06:33;;;;;;;24.13;21.60;;;;;;;;;;5077461;28;20436;-65
2023/05/22 11:09:00;;;;;;;23.60;18.43;;;;;;;;;;5076807;28;20445;-65
2023/05/22 11:11:29;;;;;;;27.20;22.70;;;;;;;;;;5076799;28;20486;-64
2023/05/22 11:14:03;;;;;;;23.97;21.53;;;;;;;;;;5077342;28;20445;-65
2023/05/22 11:16:33;;;;;;;19.27;17.37;;;;;;;;;;5076998;28;20577;-64
2023/05/22 11:19:06;;;;;;;20.63;18.60;;;;;;;;;;5077034;28;20435;-65
2023/05/22 11:21:35;;;;;;;24.10;21.70;;;;;;;;;;5077113;28;20425;-65
2023/05/22 11:24:02;;;;;;;27.00;24.40;;;;;;;;;;5076487;28;20959;-65
2023/05/22 11:26:31;;;;;;;28.50;25.67;;;;;;;;;;5076657;28;20812;-65
2023/05/22 11:29:00;;;;;;;28.13;25.43;;;;;;;;;;5076349;28;20447;-65
2023/05/22 11:31:27;;;;;;;26.27;23.67;;;;;;;;;;5076811;28;20436;-65
2023/05/22 11:33:55;;;;;;;24.93;22.50;;;;;;;;;;5077451;28;20489;-64
2023/05/22 11:36:22;;;;;;;26.13;23.33;;;;;;;;;;5076769;28;20535;-64
2023/05/22 11:38:50;;;;;;;28.80;25.37;;;;;;;;;;5076643;28;20458;-64
2023/05/22 11:41:17;;;;;;;24.50;22.20;;;;;;;;;;5076420;28;20478;-64
2023/05/22 11:43:45;;;;;;;24.43;21.83;;;;;;;;;;5076365;28;20444;-64
2023/05/22 11:46:13;;;;;;;29.33;24.70;;;;;;;;;;5076294;28;20459;-64
2023/05/22 11:48:42;;;;;;;26.40;23.60;;;;;;;;;;5075961;28;20460;-64
2023/05/22 11:51:09;;;;;;;26.17;23.77;;;;;;;;;;5075848;28;20454;-65
2023/05/22 11:53:37;;;;;;;25.27;22.70;;;;;;;;;;5076024;28;20445;-65
2023/05/22 11:56:04;;;;;;;21.70;19.57;;;;;;;;;;5076079;28;20441;-65
2023/05/22 11:58:32;;;;;;;26.73;20.70;;;;;;;;;;5075905;28;20438;-65
2023/05/22 12:01:01;;;;;;;24.43;21.50;;;;;;;;;;5075972;28;20569;-65
2023/05/22 12:03:29;;;;;;;20.83;19.03;;;;;;;;;;5076175;28;20451;-64
2023/05/22 12:05:56;;;;;;;25.00;22.43;;;;;;;;;;5076123;28;20447;-65
2023/05/22 12:08:24;;;;;;;22.63;19.87;;;;;;;;;;5075762;28;20445;-65
2023/05/22 12:10:51;;;;;;;24.20;21.70;;;;;;;;;;5075844;28;20853;-66
2023/05/22 12:13:25;;;;;;;23.20;20.70;;;;;;;;;;5075596;28;20444;-64
2023/05/22 12:15:54;;;;;;;24.77;22.30;;;;;;;;;;5074736;28;20833;-65
2023/05/22 12:18:23;;;;;;;23.97;21.33;;;;;;;;;;5075318;28;20438;-64
2023/05/22 12:20:53;;;;;;;22.13;20.13;;;;;;;;;;5075479;28;20473;-64
2023/05/22 12:23:24;;;;;;;22.87;20.57;;;;;;;;;;5075290;28;20437;-64
2023/05/22 12:26:00;;;;;;;22.53;20.23;;;;;;;;;;5075248;28;20958;-65
2023/05/22 12:28:27;;;;;;;21.73;19.63;;;;;;;;;;5075222;28;20449;-65
2023/05/22 12:30:55;;;;;;;20.97;18.87;;;;;;;;;;5075553;28;20929;-65
2023/05/22 12:33:27;;;;;;;21.20;19.00;;;;;;;;;;5075526;28;20452;-65
2023/05/22 12:35:57;;;;;;;20.27;18.27;;;;;;;;;;5075473;28;20490;-66
2023/05/22 12:38:25;;;;;;;23.27;21.00;;;;;;;;;;5074970;28;20489;-65
2023/05/22 12:40:52;;;;;;;23.83;19.97;;;;;;;;;;5075357;28;20478;-65
2023/05/22 12:43:20;;;;;;;22.20;20.00;;;;;;;;;;5075138;28;20439;-65
2023/05/22 12:45:47;;;;;;;22.43;18.90;;;;;;;;;;5075319;28;20697;-65
2023/05/22 12:48:15;;;;;;;21.17;19.17;;;;;;;;;;5074889;28;20471;-65
2023/05/22 12:50:43;;;;;;;21.43;19.53;;;;;;;;;;5075456;28;20487;-65
2023/05/22 12:53:10;;;;;;;21.80;19.63;;;;;;;;;;5074996;28;20955;-65
2023/05/22 12:55:38;;;;;;;20.77;18.57;;;;;;;;;;5075196;28;20451;-64
2023/05/22 12:58:06;;;;;;;21.77;19.50;;;;;;;;;;5074920;28;20806;-65
2023/05/22 13:00:33;;;;;;;21.83;19.70;;;;;;;;;;5074816;28;20467;-65
2023/05/22 13:03:00;;;;;;;21.87;19.70;;;;;;;;;;5075086;28;20438;-65
2023/05/22 13:05:28;;;;;;;21.00;19.00;;;;;;;;;;5074589;28;20460;-65
2023/05/22 13:07:56;;;;;;;20.43;18.13;;;;;;;;;;5074520;28;20448;-65
2023/05/22 13:10:23;;;;;;;19.80;17.70;;;;;;;;;;5074779;28;20452;-65
2023/05/22 13:12:51;;;;;;;18.63;16.87;;;;;;;;;;5074684;28;20443;-65
2023/05/22 13:15:18;;;;;;;20.43;18.30;;;;;;;;;;5074546;28;21207;-65
2023/05/22 13:17:45;;;;;;;17.20;15.40;;;;;;;;;;5074859;28;20468;-66
2023/05/22 13:20:13;;;;;;;16.73;15.23;;;;;;;;;;5074442;28;20479;-65
2023/05/22 13:22:40;;;;;;;17.53;16.03;;;;;;;;;;5073935;28;20442;-65
2023/05/22 13:25:09;;;;;;;15.33;13.73;;;;;;;;;;5074232;28;20463;-65
2023/05/22 13:27:36;;;;;;;18.83;17.13;;;;;;;;;;5074084;28;20432;-64
2023/05/22 13:30:04;;;;;;;17.57;15.10;;;;;;;;;;5074390;28;20438;-65
2023/05/22 13:32:31;;;;;;;17.30;15.50;;;;;;;;;;5073961;28;20442;-65
2023/05/22 13:34:58;;;;;;;21.97;17.63;;;;;;;;;;5074648;28;20459;-65
2023/05/22 13:37:25;;;;;;;18.80;17.00;;;;;;;;;;5073978;28;20448;-65
2023/05/22 13:39:52;;;;;;;21.50;19.60;;;;;;;;;;5073885;28;20442;-65
2023/05/22 13:42:21;;;;;;;18.57;17.00;;;;;;;;;;5073833;28;20527;-65
2023/05/22 13:44:48;;;;;;;20.43;18.50;;;;;;;;;;5073816;28;20494;-64
2023/05/22 13:47:16;;;;;;;21.30;17.03;;;;;;;;;;5073629;28;20447;-64
2023/05/22 13:49:43;;;;;;;16.73;15.13;;;;;;;;;;5073912;28;20450;-64
2023/05/22 13:52:10;;;;;;;17.03;15.30;;;;;;;;;;5073870;28;20452;-64
2023/05/22 13:54:37;;;;;;;19.00;17.33;;;;;;;;;;5074095;28;20441;-64
2023/05/22 13:57:04;;;;;;;16.60;15.00;;;;;;;;;;5073536;28;20449;-64
2023/05/22 13:59:33;;;;;;;16.80;15.40;;;;;;;;;;5073675;28;20445;-64
2023/05/22 14:02:00;;;;;;;18.20;16.50;;;;;;;;;;5073348;28;20487;-64
2023/05/22 14:04:27;;;;;;;17.10;15.60;;;;;;;;;;5073638;28;20454;-64
2023/05/22 14:06:55;;;;;;;19.87;18.00;;;;;;;;;;5074064;28;20526;-64
2023/05/22 14:09:22;;;;;;;17.80;15.97;;;;;;;;;;5073663;28;20441;-65
2023/05/22 14:11:49;;;;;;;17.77;16.07;;;;;;;;;;5073637;28;20459;-64
2023/05/22 14:14:22;;;;;;;17.03;15.47;;;;;;;;;;5073201;28;20443;-64
2023/05/22 14:16:51;;;;;;;18.50;16.57;;;;;;;;;;5073896;28;20485;-64
2023/05/22 14:19:18;;;;;;;17.17;15.63;;;;;;;;;;5073510;28;20452;-64
2023/05/22 14:21:45;;;;;;;17.33;15.73;;;;;;;;;;5073587;28;20539;-64